Time,TemperatureF,DewpointF,PressureIn,WindDirection,WindDirectionDegrees,WindSpeedMPH,WindSpeedGustMPH,Humidity,HourlyPrecipIn,Conditions,Clouds,dailyrainin,SoftwareType,DateUTC
2015-07-01 00:04:00,69.6,67.5,29.84,NNW,333,0.0,0.0,93,0.00,,,0.00,Wunderground v.1.13,2015-07-01 04:04:00,
2015-07-01 00:14:00,69.6,67.5,29.83,N/A,-737280,0.0,0.0,93,0.00,,,0.00,Wunderground v.1.13,2015-07-01 04:14:00,
2015-07-01 00:22:00,69.4,67.3,29.84,NNW,333,0.0,0.0,93,0.00,,,0.00,Wunderground v.1.13,2015-07-01 04:22:00,
2015-07-01 00:28:00,69.4,67.3,29.84,NNW,333,0.0,0.0,93,0.00,,,0.00,Wunderground v.1.13,2015-07-01 04:28:00,
2015-07-01 00:34:00,69.3,67.2,29.83,NNW,333,0.0,0.0,93,0.00,,,0.00,Wunderground v.1.13,2015-07-01 04:34:00,
2015-07-01 00:40:00,69.3,67.2,29.83,NNW,333,0.0,0.0,93,0.00,,,0.00,Wunderground v.1.13,2015-07-01 04:40:00,
2015-07-01 00:46:00,69.1,67.0,29.82,NNW,333,0.0,0.0,93,0.00,,,0.00,Wunderground v.1.13,2015-07-01 04:46:00,
2015-07-01 00:54:00,69.1,67.0,29.82,NNW,333,0.0,0.0,93,0.00,,,0.00,Wunderground v.1.13,2015-07-01 04:54:00,
2015-07-01 01:00:00,69.1,67.0,29.83,NNW,333,0.0,0.0,93,0.00,,,0.00,Wunderground v.1.13,2015-07-01 05:00:00,
2015-07-01 01:08:00,68.9,66.8,29.83,NNW,333,0.0,0.0,93,0.00,,,0.00,Wunderground v.1.13,2015-07-01 05:08:00,
2015-07-01 01:14:00,68.9,67.1,29.83,NNW,333,0.0,0.0,94,0.00,,,0.00,Wunderground v.1.13,2015-07-01 05:14:00,
2015-07-01 01:22:00,68.8,67.0,29.82,NNW,333,0.0,0.0,94,0.00,,,0.00,Wunderground v.1.13,2015-07-01 05:22:00,
2015-07-01 01:28:00,68.8,67.0,29.82,NNW,333,0.0,0.0,94,0.00,,,0.00,Wunderground v.1.13,2015-07-01 05:28:00,
2015-07-01 01:38:00,68.6,66.8,29.82,NNW,335,0.0,0.0,94,0.00,,,0.00,Wunderground v.1.13,2015-07-01 05:38:00,
2015-07-01 01:44:00,68.6,66.8,29.82,NNW,335,0.0,0.0,94,0.00,,,0.00,Wunderground v.1.13,2015-07-01 05:44:00,
2015-07-01 01:52:00,68.6,66.8,29.82,N/A,-737280,0.0,0.0,94,0.00,,,0.00,Wunderground v.1.13,2015-07-01 05:52:00,
2015-07-01 01:58:00,68.4,66.6,29.82,NNW,335,0.0,0.0,94,0.00,,,0.00,Wunderground v.1.13,2015-07-01 05:58:00,
2015-07-01 02:04:00,68.4,66.6,29.81,NNW,335,0.0,0.0,94,0.00,,,0.00,Wunderground v.1.13,2015-07-01 06:04:00,
2015-07-01 02:10:00,68.4,66.6,29.81,NNW,335,0.0,0.0,94,0.00,,,0.00,Wunderground v.1.13,2015-07-01 06:10:00,
2015-07-01 02:16:00,68.3,66.5,29.81,NNW,335,0.0,0.0,94,0.00,,,0.00,Wunderground v.1.13,2015-07-01 06:16:00,
2015-07-01 02:22:00,68.3,66.5,29.81,NNW,335,0.0,0.0,94,0.00,,,0.00,Wunderground v.1.13,2015-07-01 06:22:00,
2015-07-01 02:28:00,68.3,66.5,29.81,NNW,335,0.0,0.0,94,0.00,,,0.00,Wunderground v.1.13,2015-07-01 06:28:00,
2015-07-01 02:34:00,68.3,66.5,29.81,NNW,335,0.0,0.0,94,0.00,,,0.00,Wunderground v.1.13,2015-07-01 06:34:00,
2015-07-01 02:40:00,68.3,66.5,29.81,NNW,335,0.0,0.0,94,0.00,,,0.00,Wunderground v.1.13,2015-07-01 06:40:00,
2015-07-01 02:46:00,68.3,66.5,29.81,NNW,335,0.0,0.0,94,0.00,,,0.00,Wunderground v.1.13,2015-07-01 06:46:00,
2015-07-01 02:52:00,68.3,66.5,29.81,NNW,335,0.0,0.0,94,0.00,,,0.00,Wunderground v.1.13,2015-07-01 06:52:00,
2015-07-01 02:58:00,68.3,66.8,29.81,NNW,335,0.0,0.0,95,0.00,,,0.00,Wunderground v.1.13,2015-07-01 06:58:00,
2015-07-01 03:04:00,68.3,66.8,29.81,NNW,335,0.0,0.0,95,0.00,,,0.00,Wunderground v.1.13,2015-07-01 07:04:00,
2015-07-01 03:10:00,68.3,66.8,29.81,NNW,335,0.0,0.0,95,0.00,,,0.00,Wunderground v.1.13,2015-07-01 07:10:00,
2015-07-01 03:16:00,68.3,66.8,29.82,NNW,335,0.0,0.0,95,0.00,,,0.00,Wunderground v.1.13,2015-07-01 07:16:00,
2015-07-01 03:22:00,68.3,66.8,29.82,NNW,335,0.0,0.0,95,0.00,,,0.00,Wunderground v.1.13,2015-07-01 07:22:00,
2015-07-01 03:28:00,68.3,66.8,29.82,NNW,335,0.0,0.0,95,0.00,,,0.00,Wunderground v.1.13,2015-07-01 07:28:00,
2015-07-01 03:34:00,68.1,66.6,29.82,NNW,335,0.0,0.0,95,0.00,,,0.00,Wunderground v.1.13,2015-07-01 07:34:00,
2015-07-01 03:40:00,68.1,66.6,29.82,NNW,335,0.0,0.0,95,0.00,,,0.00,Wunderground v.1.13,2015-07-01 07:40:00,
2015-07-01 03:46:00,68.1,66.6,29.82,NNW,335,0.0,0.0,95,0.00,,,0.00,Wunderground v.1.13,2015-07-01 07:46:00,
2015-07-01 03:52:00,68.1,66.6,29.82,NNW,335,0.0,0.0,95,0.00,,,0.00,Wunderground v.1.13,2015-07-01 07:52:00,
2015-07-01 03:58:00,68.1,66.6,29.82,NNW,335,0.0,0.0,95,0.00,,,0.00,Wunderground v.1.13,2015-07-01 07:58:00,
2015-07-01 04:04:00,68.1,66.6,29.82,NNW,335,0.0,0.0,95,0.00,,,0.00,Wunderground v.1.13,2015-07-01 08:04:00,
2015-07-01 04:10:00,68.1,66.6,29.82,NNW,335,0.0,0.0,95,0.00,,,0.00,Wunderground v.1.13,2015-07-01 08:10:00,
2015-07-01 04:16:00,67.9,66.4,29.82,NNW,335,0.0,0.0,95,0.00,,,0.00,Wunderground v.1.13,2015-07-01 08:16:00,
2015-07-01 04:22:00,67.9,66.4,29.82,NNW,335,0.0,0.0,95,0.00,,,0.00,Wunderground v.1.13,2015-07-01 08:22:00,
2015-07-01 04:28:00,67.9,66.4,29.82,NNW,335,0.0,0.0,95,0.00,,,0.00,Wunderground v.1.13,2015-07-01 08:28:00,
2015-07-01 04:38:00,67.9,66.4,29.81,NNW,335,0.0,0.0,95,0.00,,,0.00,Wunderground v.1.13,2015-07-01 08:38:00,
2015-07-01 04:44:00,67.8,66.3,29.81,NNW,335,0.0,0.0,95,0.00,,,0.00,Wunderground v.1.13,2015-07-01 08:44:00,
2015-07-01 04:52:00,67.8,66.3,29.81,NNW,335,0.0,0.0,95,0.00,,,0.01,Wunderground v.1.13,2015-07-01 08:52:00,
2015-07-01 04:58:00,67.8,66.3,29.81,NNW,335,0.0,0.0,95,0.00,,,0.01,Wunderground v.1.13,2015-07-01 08:58:00,
2015-07-01 05:04:00,67.8,66.3,29.81,NNW,335,0.0,0.0,95,0.00,,,0.01,Wunderground v.1.13,2015-07-01 09:04:00,
2015-07-01 05:10:00,67.8,66.3,29.81,NNW,335,0.0,0.0,95,0.00,,,0.01,Wunderground v.1.13,2015-07-01 09:10:00,
2015-07-01 05:16:00,67.6,66.1,29.81,NNW,335,0.0,0.0,95,0.00,,,0.01,Wunderground v.1.13,2015-07-01 09:16:00,
2015-07-01 05:22:00,67.6,66.1,29.81,NNW,335,0.0,0.0,95,0.00,,,0.01,Wunderground v.1.13,2015-07-01 09:22:00,
2015-07-01 05:28:00,67.6,66.1,29.81,NNW,335,0.0,0.0,95,0.00,,,0.01,Wunderground v.1.13,2015-07-01 09:28:00,
2015-07-01 05:34:00,67.6,66.1,29.82,NNW,335,0.0,0.0,95,0.00,,,0.01,Wunderground v.1.13,2015-07-01 09:34:00,
2015-07-01 05:40:00,67.4,65.9,29.82,NNW,335,0.0,0.0,95,0.00,,,0.01,Wunderground v.1.13,2015-07-01 09:40:00,
2015-07-01 05:46:00,67.4,65.9,29.82,NNW,335,0.0,0.0,95,0.00,,,0.01,Wunderground v.1.13,2015-07-01 09:46:00,
2015-07-01 05:52:00,67.4,65.9,29.82,NNW,335,0.0,0.0,95,0.00,,,0.01,Wunderground v.1.13,2015-07-01 09:52:00,
2015-07-01 05:58:00,67.4,65.9,29.82,NNW,335,0.0,0.0,95,0.00,,,0.01,Wunderground v.1.13,2015-07-01 09:58:00,
2015-07-01 06:04:00,67.4,65.9,29.83,NNW,335,0.0,0.0,95,0.00,,,0.01,Wunderground v.1.13,2015-07-01 10:04:00,
2015-07-01 06:10:00,67.3,65.8,29.83,NNW,335,0.0,0.0,95,0.00,,,0.01,Wunderground v.1.13,2015-07-01 10:10:00,
2015-07-01 06:16:00,67.3,65.8,29.84,NNW,335,0.0,0.0,95,0.00,,,0.01,Wunderground v.1.13,2015-07-01 10:16:00,
2015-07-01 06:22:00,67.3,65.8,29.84,NNW,335,0.0,0.0,95,0.00,,,0.01,Wunderground v.1.13,2015-07-01 10:22:00,
2015-07-01 06:28:00,67.3,65.8,29.84,NNW,335,0.0,0.0,95,0.00,,,0.01,Wunderground v.1.13,2015-07-01 10:28:00,
2015-07-01 06:34:00,67.3,65.8,29.84,NNW,335,0.0,0.0,95,0.00,,,0.01,Wunderground v.1.13,2015-07-01 10:34:00,
2015-07-01 06:40:00,67.3,65.8,29.84,NNW,335,0.0,0.0,95,0.00,,,0.01,Wunderground v.1.13,2015-07-01 10:40:00,
2015-07-01 06:46:00,67.3,66.1,29.85,NNW,335,0.0,0.0,96,0.00,,,0.01,Wunderground v.1.13,2015-07-01 10:46:00,
2015-07-01 06:52:00,67.3,66.1,29.85,SW,229,0.0,0.0,96,0.00,,,0.01,Wunderground v.1.13,2015-07-01 10:52:00,
2015-07-01 06:58:00,67.3,66.1,29.85,SW,229,0.0,0.0,96,0.00,,,0.01,Wunderground v.1.13,2015-07-01 10:58:00,
2015-07-01 07:04:00,67.4,66.2,29.85,SW,229,0.0,0.0,96,0.00,,,0.01,Wunderground v.1.13,2015-07-01 11:04:00,
2015-07-01 07:10:00,67.4,66.2,29.85,SW,229,0.0,0.0,96,0.00,,,0.01,Wunderground v.1.13,2015-07-01 11:10:00,
2015-07-01 07:16:00,67.6,66.4,29.86,SW,229,0.0,0.0,96,0.00,,,0.01,Wunderground v.1.13,2015-07-01 11:16:00,
2015-07-01 07:22:00,67.8,66.6,29.86,SW,229,0.0,0.0,96,0.00,,,0.01,Wunderground v.1.13,2015-07-01 11:22:00,
2015-07-01 07:28:00,67.8,66.6,29.86,SW,229,0.0,0.0,96,0.00,,,0.01,Wunderground v.1.13,2015-07-01 11:28:00,
2015-07-01 07:34:00,67.9,66.7,29.86,SW,229,0.0,0.0,96,0.00,,,0.01,Wunderground v.1.13,2015-07-01 11:34:00,
2015-07-01 07:40:00,68.1,67.2,29.86,SW,229,0.0,0.0,97,0.00,,,0.01,Wunderground v.1.13,2015-07-01 11:40:00,
2015-07-01 07:46:00,68.3,67.4,29.86,SW,229,0.0,0.0,97,0.00,,,0.01,Wunderground v.1.13,2015-07-01 11:46:00,
2015-07-01 07:52:00,68.4,67.5,29.86,SW,229,0.0,0.0,97,0.00,,,0.01,Wunderground v.1.13,2015-07-01 11:52:00,
2015-07-01 07:58:00,68.6,67.7,29.86,SW,229,0.0,0.0,97,0.00,,,0.01,Wunderground v.1.13,2015-07-01 11:58:00,
2015-07-01 08:04:00,68.8,67.9,29.86,SW,229,0.0,0.0,97,0.00,,,0.01,Wunderground v.1.13,2015-07-01 12:04:00,
2015-07-01 08:12:00,68.8,67.9,29.86,N/A,-737280,0.0,0.0,97,0.00,,,0.01,Wunderground v.1.13,2015-07-01 12:12:00,
2015-07-01 08:18:00,69.3,68.4,29.86,SW,229,0.0,0.0,97,0.00,,,0.01,Wunderground v.1.13,2015-07-01 12:18:00,
2015-07-01 08:24:00,69.3,68.4,29.86,SW,229,0.0,0.0,97,0.00,,,0.01,Wunderground v.1.13,2015-07-01 12:24:00,
2015-07-01 08:30:00,69.4,68.5,29.86,SW,230,0.0,0.0,97,0.00,,,0.01,Wunderground v.1.13,2015-07-01 12:30:00,
2015-07-01 08:38:00,69.8,68.9,29.86,SW,230,0.0,0.0,97,0.00,,,0.01,Wunderground v.1.13,2015-07-01 12:38:00,
2015-07-01 08:44:00,69.9,69.0,29.86,North,353,0.0,0.0,97,0.00,,,0.01,Wunderground v.1.13,2015-07-01 12:44:00,
2015-07-01 08:52:00,70.1,69.2,29.86,North,353,0.0,0.0,97,0.00,,,0.01,Wunderground v.1.13,2015-07-01 12:52:00,
2015-07-01 08:58:00,70.1,69.2,29.86,North,353,0.0,0.0,97,0.00,,,0.01,Wunderground v.1.13,2015-07-01 12:58:00,
2015-07-01 09:04:00,70.3,69.4,29.87,North,353,0.0,0.0,97,0.00,,,0.01,Wunderground v.1.13,2015-07-01 13:04:00,
2015-07-01 09:10:00,70.4,69.5,29.87,North,353,0.0,0.0,97,0.00,,,0.01,Wunderground v.1.13,2015-07-01 13:10:00,
2015-07-01 09:16:00,70.8,69.9,29.87,North,353,0.0,0.0,97,0.00,,,0.01,Wunderground v.1.13,2015-07-01 13:16:00,
2015-07-01 09:22:00,70.9,69.7,29.87,North,353,0.0,0.0,96,0.00,,,0.01,Wunderground v.1.13,2015-07-01 13:22:00,
2015-07-01 09:28:00,71.1,69.9,29.87,North,353,0.0,0.0,96,0.00,,,0.01,Wunderground v.1.13,2015-07-01 13:28:00,
2015-07-01 09:34:00,72.1,69.6,29.87,North,353,0.0,0.0,92,0.00,,,0.01,Wunderground v.1.13,2015-07-01 13:34:00,
2015-07-01 09:40:00,72.7,69.6,29.87,North,353,0.0,0.0,90,0.00,,,0.01,Wunderground v.1.13,2015-07-01 13:40:00,
2015-07-01 09:46:00,73.2,69.4,29.87,North,353,0.0,0.0,88,0.00,,,0.01,Wunderground v.1.13,2015-07-01 13:46:00,
2015-07-01 09:52:00,73.7,69.6,29.87,North,353,0.0,0.0,87,0.00,,,0.01,Wunderground v.1.13,2015-07-01 13:52:00,
2015-07-01 09:58:00,74.0,69.2,29.87,North,353,0.0,0.0,85,0.00,,,0.01,Wunderground v.1.13,2015-07-01 13:58:00,
2015-07-01 10:04:00,74.4,69.2,29.87,North,353,0.0,0.0,84,0.00,,,0.01,Wunderground v.1.13,2015-07-01 14:04:00,
2015-07-01 10:10:00,74.7,68.8,29.87,North,353,0.0,0.0,82,0.00,,,0.01,Wunderground v.1.13,2015-07-01 14:10:00,
2015-07-01 10:16:00,75.4,69.5,29.87,North,353,0.0,0.0,82,0.00,,,0.01,Wunderground v.1.13,2015-07-01 14:16:00,
2015-07-01 10:22:00,75.8,70.3,29.87,North,353,0.0,0.0,83,0.00,,,0.01,Wunderground v.1.13,2015-07-01 14:22:00,
2015-07-01 10:28:00,76.1,69.1,29.87,North,353,0.0,0.0,79,0.00,,,0.01,Wunderground v.1.13,2015-07-01 14:28:00,
2015-07-01 10:34:00,76.3,67.8,29.87,North,353,0.0,0.0,75,0.00,,,0.01,Wunderground v.1.13,2015-07-01 14:34:00,
2015-07-01 10:40:00,76.7,69.7,29.87,North,353,0.0,0.0,79,0.00,,,0.01,Wunderground v.1.13,2015-07-01 14:40:00,
2015-07-01 10:46:00,77.2,70.2,29.87,North,353,0.0,0.0,79,0.00,,,0.01,Wunderground v.1.13,2015-07-01 14:46:00,
2015-07-01 10:52:00,77.6,69.0,29.87,North,353,0.0,0.0,75,0.00,,,0.01,Wunderground v.1.13,2015-07-01 14:52:00,
2015-07-01 10:58:00,78.8,69.4,29.87,North,354,0.0,0.0,73,0.00,,,0.01,Wunderground v.1.13,2015-07-01 14:58:00,
2015-07-01 11:04:00,79.2,70.6,29.87,North,0,0.0,0.0,75,0.00,,,0.01,Wunderground v.1.13,2015-07-01 15:04:00,
2015-07-01 11:10:00,78.6,69.6,29.87,North,0,0.0,0.0,74,0.00,,,0.01,Wunderground v.1.13,2015-07-01 15:10:00,
2015-07-01 11:16:00,78.6,70.4,29.87,North,0,0.0,0.0,76,0.00,,,0.01,Wunderground v.1.13,2015-07-01 15:16:00,
2015-07-01 11:22:00,79.8,68.7,29.87,North,0,0.0,0.0,69,0.00,,,0.01,Wunderground v.1.13,2015-07-01 15:22:00,
2015-07-01 11:28:00,79.2,70.2,29.87,North,0,0.0,0.0,74,0.00,,,0.01,Wunderground v.1.13,2015-07-01 15:28:00,
2015-07-01 11:34:00,79.4,70.4,29.87,North,0,0.0,0.0,74,0.00,,,0.01,Wunderground v.1.13,2015-07-01 15:34:00,
2015-07-01 11:40:00,80.5,69.0,29.87,North,0,0.0,0.0,68,0.00,,,0.01,Wunderground v.1.13,2015-07-01 15:40:00,
2015-07-01 11:46:00,80.7,70.4,29.87,North,0,0.0,0.0,71,0.00,,,0.01,Wunderground v.1.13,2015-07-01 15:46:00,
2015-07-01 11:52:00,80.1,69.4,29.87,North,0,0.0,0.0,70,0.00,,,0.01,Wunderground v.1.13,2015-07-01 15:52:00,
2015-07-01 11:58:00,81.2,70.1,29.87,North,0,0.0,0.0,69,0.00,,,0.01,Wunderground v.1.13,2015-07-01 15:58:00,
2015-07-01 12:04:00,81.1,69.1,29.87,North,0,0.0,0.0,67,0.00,,,0.01,Wunderground v.1.13,2015-07-01 16:04:00,
2015-07-01 12:12:00,81.7,68.3,29.87,N/A,-737280,0.0,0.0,64,0.00,,,0.01,Wunderground v.1.13,2015-07-01 16:12:00,
2015-07-01 12:18:00,82.2,72.3,29.87,North,0,0.0,0.0,72,0.00,,,0.01,Wunderground v.1.13,2015-07-01 16:18:00,
2015-07-01 12:24:00,82.2,71.9,29.87,North,0,0.0,0.0,71,0.00,,,0.01,Wunderground v.1.13,2015-07-01 16:24:00,
2015-07-01 12:30:00,81.8,69.8,29.87,North,357,0.0,0.0,67,0.00,,,0.01,Wunderground v.1.13,2015-07-01 16:30:00,
2015-07-01 12:38:00,82.2,70.6,29.87,North,0,0.0,0.0,68,0.00,,,0.01,Wunderground v.1.13,2015-07-01 16:38:00,
2015-07-01 12:44:00,82.2,69.3,29.87,North,356,0.0,0.0,65,0.00,,,0.01,Wunderground v.1.13,2015-07-01 16:44:00,
2015-07-01 12:50:00,82.0,70.0,29.87,North,354,0.0,0.0,67,0.00,,,0.01,Wunderground v.1.13,2015-07-01 16:50:00,
2015-07-01 12:56:00,83.0,69.6,29.87,North,353,0.0,0.0,64,0.00,,,0.01,Wunderground v.1.13,2015-07-01 16:56:00,
2015-07-01 13:02:00,83.8,68.9,29.87,North,0,0.0,5.0,61,0.00,,,0.01,Wunderground v.1.13,2015-07-01 17:02:00,
2015-07-01 13:08:00,83.0,70.5,29.87,North,0,1.0,1.0,66,0.00,,,0.01,Wunderground v.1.13,2015-07-01 17:08:00,
2015-07-01 13:14:00,83.0,72.2,29.87,North,0,0.0,0.0,70,0.00,,,0.01,Wunderground v.1.13,2015-07-01 17:14:00,
2015-07-01 13:22:00,82.6,70.1,29.86,North,0,0.0,0.0,66,0.00,,,0.01,Wunderground v.1.13,2015-07-01 17:22:00,
2015-07-01 13:28:00,83.0,70.5,29.86,North,0,0.0,0.0,66,0.00,,,0.01,Wunderground v.1.13,2015-07-01 17:28:00,
2015-07-01 13:34:00,83.6,71.5,29.86,North,0,0.0,0.0,67,0.00,,,0.01,Wunderground v.1.13,2015-07-01 17:34:00,
2015-07-01 13:40:00,84.3,69.4,29.86,North,0,0.0,0.0,61,0.00,,,0.01,Wunderground v.1.13,2015-07-01 17:40:00,
2015-07-01 13:46:00,83.8,71.7,29.85,North,0,0.0,0.0,67,0.00,,,0.01,Wunderground v.1.13,2015-07-01 17:46:00,
2015-07-01 13:52:00,83.6,67.8,29.85,North,0,0.0,0.0,59,0.00,,,0.01,Wunderground v.1.13,2015-07-01 17:52:00,
2015-07-01 13:58:00,84.3,68.9,29.85,North,0,0.0,0.0,60,0.00,,,0.01,Wunderground v.1.13,2015-07-01 17:58:00,
2015-07-01 14:04:00,83.8,70.8,29.84,North,0,0.0,0.0,65,0.00,,,0.01,Wunderground v.1.13,2015-07-01 18:04:00,
2015-07-01 14:10:00,83.8,67.4,29.84,North,0,0.0,0.0,58,0.00,,,0.01,Wunderground v.1.13,2015-07-01 18:10:00,
2015-07-01 14:16:00,83.8,68.9,29.84,North,0,0.0,0.0,61,0.00,,,0.01,Wunderground v.1.13,2015-07-01 18:16:00,
2015-07-01 14:22:00,84.7,68.8,29.84,North,0,0.0,0.0,59,0.00,,,0.01,Wunderground v.1.13,2015-07-01 18:22:00,
2015-07-01 14:28:00,84.9,68.5,29.84,North,0,0.0,0.0,58,0.00,,,0.01,Wunderground v.1.13,2015-07-01 18:28:00,
2015-07-01 14:34:00,84.1,69.7,29.84,North,0,0.0,0.0,62,0.00,,,0.01,Wunderground v.1.13,2015-07-01 18:34:00,
2015-07-01 14:40:00,84.9,71.4,29.84,North,0,0.0,0.0,64,0.00,,,0.01,Wunderground v.1.13,2015-07-01 18:40:00,
2015-07-01 14:46:00,83.8,71.2,29.84,North,0,0.0,0.0,66,0.00,,,0.01,Wunderground v.1.13,2015-07-01 18:46:00,
2015-07-01 14:52:00,84.9,68.5,29.84,North,0,0.0,0.0,58,0.00,,,0.01,Wunderground v.1.13,2015-07-01 18:52:00,
2015-07-01 14:58:00,84.3,68.4,29.84,North,0,0.0,0.0,59,0.00,,,0.01,Wunderground v.1.13,2015-07-01 18:58:00,
2015-07-01 15:04:00,84.5,68.1,29.84,North,0,0.0,0.0,58,0.00,,,0.01,Wunderground v.1.13,2015-07-01 19:04:00,
2015-07-01 15:10:00,84.5,67.6,29.84,North,359,0.0,0.0,57,0.00,,,0.01,Wunderground v.1.13,2015-07-01 19:10:00,
2015-07-01 15:16:00,84.9,69.0,29.84,North,359,0.0,0.0,59,0.00,,,0.01,Wunderground v.1.13,2015-07-01 19:16:00,
2015-07-01 15:22:00,84.7,68.8,29.84,NE,55,0.0,0.0,59,0.00,,,0.01,Wunderground v.1.13,2015-07-01 19:22:00,
2015-07-01 15:28:00,84.9,69.0,29.84,North,3,0.0,0.0,59,0.00,,,0.01,Wunderground v.1.13,2015-07-01 19:28:00,
2015-07-01 15:34:00,84.7,69.8,29.83,North,3,0.0,0.0,61,0.00,,,0.01,Wunderground v.1.13,2015-07-01 19:34:00,
2015-07-01 15:40:00,85.1,68.2,29.83,North,0,0.0,0.0,57,0.00,,,0.01,Wunderground v.1.13,2015-07-01 19:40:00,
2015-07-01 15:46:00,85.3,69.3,29.83,West,265,0.0,0.0,59,0.00,,,0.01,Wunderground v.1.13,2015-07-01 19:46:00,
2015-07-01 15:52:00,84.9,69.5,29.83,West,265,0.0,0.0,60,0.00,,,0.01,Wunderground v.1.13,2015-07-01 19:52:00,
2015-07-01 15:58:00,84.5,69.1,29.83,West,263,0.0,0.0,60,0.00,,,0.01,Wunderground v.1.13,2015-07-01 19:58:00,
2015-07-01 16:04:00,84.3,69.9,29.82,West,263,0.0,0.0,62,0.00,,,0.01,Wunderground v.1.13,2015-07-01 20:04:00,
2015-07-01 16:10:00,84.5,70.0,29.82,NNW,342,0.0,0.0,62,0.00,,,0.01,Wunderground v.1.13,2015-07-01 20:10:00,
2015-07-01 16:16:00,84.5,68.6,29.82,NNW,342,0.0,0.0,59,0.00,,,0.01,Wunderground v.1.13,2015-07-01 20:16:00,
2015-07-01 16:22:00,84.5,68.6,29.82,NNW,333,0.0,0.0,59,0.00,,,0.01,Wunderground v.1.13,2015-07-01 20:22:00,
2015-07-01 16:28:00,84.3,68.9,29.82,NW,306,0.0,0.0,60,0.00,,,0.01,Wunderground v.1.13,2015-07-01 20:28:00,
2015-07-01 16:34:00,84.3,69.9,29.82,NW,320,0.0,0.0,62,0.00,,,0.01,Wunderground v.1.13,2015-07-01 20:34:00,
2015-07-01 16:40:00,84.3,68.4,29.82,NW,320,0.0,0.0,59,0.00,,,0.01,Wunderground v.1.13,2015-07-01 20:40:00,
2015-07-01 16:46:00,84.0,69.6,29.82,NW,320,0.0,0.0,62,0.00,,,0.01,Wunderground v.1.13,2015-07-01 20:46:00,
2015-07-01 16:52:00,84.1,69.7,29.82,NW,320,0.0,0.0,62,0.00,,,0.01,Wunderground v.1.13,2015-07-01 20:52:00,
2015-07-01 16:58:00,84.1,69.7,29.82,NW,320,0.0,0.0,62,0.00,,,0.01,Wunderground v.1.13,2015-07-01 20:58:00,
2015-07-01 17:04:00,84.3,69.4,29.82,NW,320,0.0,0.0,61,0.00,,,0.01,Wunderground v.1.13,2015-07-01 21:04:00,
2015-07-01 17:10:00,84.1,69.7,29.82,NW,320,0.0,0.0,62,0.00,,,0.01,Wunderground v.1.13,2015-07-01 21:10:00,
2015-07-01 17:16:00,84.3,69.9,29.82,NW,320,0.0,0.0,62,0.00,,,0.01,Wunderground v.1.13,2015-07-01 21:16:00,
2015-07-01 17:22:00,84.3,69.9,29.82,NW,320,0.0,0.0,62,0.00,,,0.01,Wunderground v.1.13,2015-07-01 21:22:00,
2015-07-01 17:28:00,84.3,69.4,29.82,NW,320,0.0,0.0,61,0.00,,,0.01,Wunderground v.1.13,2015-07-01 21:28:00,
2015-07-01 17:34:00,84.3,69.9,29.81,NW,320,0.0,0.0,62,0.00,,,0.01,Wunderground v.1.13,2015-07-01 21:34:00,
2015-07-01 17:40:00,84.3,69.4,29.81,NW,320,0.0,0.0,61,0.00,,,0.01,Wunderground v.1.13,2015-07-01 21:40:00,
2015-07-01 17:46:00,84.1,69.7,29.81,NW,320,0.0,0.0,62,0.00,,,0.01,Wunderground v.1.13,2015-07-01 21:46:00,
2015-07-01 17:52:00,84.1,69.2,29.81,NW,320,0.0,0.0,61,0.00,,,0.01,Wunderground v.1.13,2015-07-01 21:52:00,
2015-07-01 17:58:00,84.1,69.2,29.81,NW,320,0.0,0.0,61,0.00,,,0.01,Wunderground v.1.13,2015-07-01 21:58:00,
2015-07-01 18:04:00,84.1,69.7,29.81,NW,320,0.0,0.0,62,0.00,,,0.01,Wunderground v.1.13,2015-07-01 22:04:00,
2015-07-01 18:10:00,84.1,69.7,29.81,NW,320,0.0,0.0,62,0.00,,,0.01,Wunderground v.1.13,2015-07-01 22:10:00,
2015-07-01 18:16:00,84.1,70.1,29.81,NW,320,0.0,0.0,63,0.00,,,0.01,Wunderground v.1.13,2015-07-01 22:16:00,
2015-07-01 18:22:00,84.1,70.1,29.81,NW,320,0.0,0.0,63,0.00,,,0.01,Wunderground v.1.13,2015-07-01 22:22:00,
2015-07-01 18:28:00,84.0,70.0,29.81,NW,320,0.0,0.0,63,0.00,,,0.01,Wunderground v.1.13,2015-07-01 22:28:00,
2015-07-01 18:34:00,84.0,70.0,29.81,NW,320,0.0,0.0,63,0.00,,,0.01,Wunderground v.1.13,2015-07-01 22:34:00,
2015-07-01 18:40:00,83.8,69.9,29.81,NW,320,0.0,0.0,63,0.00,,,0.01,Wunderground v.1.13,2015-07-01 22:40:00,
2015-07-01 18:46:00,83.8,70.3,29.81,NW,320,0.0,0.0,64,0.00,,,0.01,Wunderground v.1.13,2015-07-01 22:46:00,
2015-07-01 18:52:00,83.8,70.3,29.81,NW,320,0.0,0.0,64,0.00,,,0.01,Wunderground v.1.13,2015-07-01 22:52:00,
2015-07-01 18:58:00,83.6,70.1,29.81,NW,320,0.0,0.0,64,0.00,,,0.01,Wunderground v.1.13,2015-07-01 22:58:00,
2015-07-01 19:04:00,83.6,70.6,29.81,NW,320,0.0,0.0,65,0.00,,,0.01,Wunderground v.1.13,2015-07-01 23:04:00,
2015-07-01 19:10:00,83.4,70.4,29.81,NW,320,0.0,0.0,65,0.00,,,0.01,Wunderground v.1.13,2015-07-01 23:10:00,
2015-07-01 19:16:00,83.4,70.4,29.82,NW,320,0.0,0.0,65,0.00,,,0.01,Wunderground v.1.13,2015-07-01 23:16:00,
2015-07-01 19:22:00,83.4,70.4,29.82,NW,322,0.0,0.0,65,0.00,,,0.01,Wunderground v.1.13,2015-07-01 23:22:00,
2015-07-01 19:28:00,83.2,70.2,29.82,NW,322,0.0,0.0,65,0.00,,,0.01,Wunderground v.1.13,2015-07-01 23:28:00,
2015-07-01 19:34:00,83.2,70.2,29.82,NW,322,0.0,0.0,65,0.00,,,0.01,Wunderground v.1.13,2015-07-01 23:34:00,
2015-07-01 19:40:00,83.0,70.0,29.82,NW,322,0.0,0.0,65,0.00,,,0.01,Wunderground v.1.13,2015-07-01 23:40:00,
2015-07-01 19:46:00,83.0,70.0,29.82,NW,322,0.0,0.0,65,0.00,,,0.01,Wunderground v.1.13,2015-07-01 23:46:00,
2015-07-01 19:52:00,82.8,69.8,29.82,NW,322,0.0,0.0,65,0.00,,,0.01,Wunderground v.1.13,2015-07-01 23:52:00,
2015-07-01 19:58:00,82.8,69.8,29.82,NW,322,0.0,0.0,65,0.00,,,0.01,Wunderground v.1.13,2015-07-01 23:58:00,
2015-07-01 20:04:00,82.6,70.1,29.82,NW,322,0.0,0.0,66,0.00,,,0.01,Wunderground v.1.13,2015-07-02 00:04:00,
2015-07-01 20:10:00,82.4,69.9,29.82,NW,322,0.0,0.0,66,0.00,,,0.01,Wunderground v.1.13,2015-07-02 00:10:00,
2015-07-01 20:16:00,82.4,70.3,29.83,NW,322,0.0,0.0,67,0.00,,,0.01,Wunderground v.1.13,2015-07-02 00:16:00,
2015-07-01 20:22:00,82.2,70.1,29.83,NW,322,0.0,0.0,67,0.00,,,0.01,Wunderground v.1.13,2015-07-02 00:22:00,
2015-07-01 20:28:00,82.2,70.1,29.83,NW,322,0.0,0.0,67,0.00,,,0.01,Wunderground v.1.13,2015-07-02 00:28:00,
2015-07-01 20:34:00,82.0,70.0,29.83,NW,322,0.0,0.0,67,0.00,,,0.01,Wunderground v.1.13,2015-07-02 00:34:00,
2015-07-01 20:40:00,81.8,70.2,29.83,NW,322,0.0,0.0,68,0.00,,,0.01,Wunderground v.1.13,2015-07-02 00:40:00,
2015-07-01 20:46:00,81.6,70.0,29.84,NW,322,0.0,0.0,68,0.00,,,0.01,Wunderground v.1.13,2015-07-02 00:46:00,
2015-07-01 20:52:00,81.4,70.2,29.84,NW,322,0.0,0.0,69,0.00,,,0.01,Wunderground v.1.13,2015-07-02 00:52:00,
2015-07-01 20:58:00,81.2,70.1,29.84,NW,322,0.0,0.0,69,0.00,,,0.01,Wunderground v.1.13,2015-07-02 00:58:00,
2015-07-01 21:04:00,81.2,70.5,29.84,NW,322,0.0,0.0,70,0.00,,,0.01,Wunderground v.1.13,2015-07-02 01:04:00,
2015-07-01 21:10:00,81.1,70.4,29.84,NW,322,0.0,0.0,70,0.00,,,0.01,Wunderground v.1.13,2015-07-02 01:10:00,
2015-07-01 21:16:00,80.9,70.6,29.84,NW,322,0.0,0.0,71,0.00,,,0.01,Wunderground v.1.13,2015-07-02 01:16:00,
2015-07-01 21:22:00,80.9,71.0,29.84,NW,322,0.0,0.0,72,0.00,,,0.01,Wunderground v.1.13,2015-07-02 01:22:00,
2015-07-01 21:28:00,80.7,71.2,29.84,NW,322,0.0,0.0,73,0.00,,,0.01,Wunderground v.1.13,2015-07-02 01:28:00,
2015-07-01 21:34:00,80.5,71.0,29.84,NW,322,0.0,0.0,73,0.00,,,0.01,Wunderground v.1.13,2015-07-02 01:34:00,
2015-07-01 21:40:00,80.5,71.0,29.84,NW,322,0.0,0.0,73,0.00,,,0.01,Wunderground v.1.13,2015-07-02 01:40:00,
2015-07-01 21:46:00,80.3,71.3,29.84,NW,322,0.0,0.0,74,0.00,,,0.01,Wunderground v.1.13,2015-07-02 01:46:00,
2015-07-01 21:52:00,80.3,71.3,29.84,NW,322,0.0,0.0,74,0.00,,,0.01,Wunderground v.1.13,2015-07-02 01:52:00,
2015-07-01 21:58:00,80.3,71.6,29.84,NW,322,0.0,0.0,75,0.00,,,0.01,Wunderground v.1.13,2015-07-02 01:58:00,
2015-07-01 22:04:00,80.1,71.5,29.85,NW,322,0.0,0.0,75,0.00,,,0.01,Wunderground v.1.13,2015-07-02 02:04:00,
2015-07-01 22:10:00,80.1,71.8,29.85,NW,322,0.0,0.0,76,0.00,,,0.01,Wunderground v.1.13,2015-07-02 02:10:00,
2015-07-01 22:16:00,79.9,71.7,29.85,NW,322,0.0,0.0,76,0.00,,,0.01,Wunderground v.1.13,2015-07-02 02:16:00,
2015-07-01 22:22:00,79.9,71.7,29.85,NW,322,0.0,0.0,76,0.00,,,0.01,Wunderground v.1.13,2015-07-02 02:22:00,
2015-07-01 22:28:00,79.8,71.6,29.85,NW,322,0.0,0.0,76,0.00,,,0.01,Wunderground v.1.13,2015-07-02 02:28:00,
2015-07-01 22:34:00,79.6,71.8,29.85,NW,320,0.0,0.0,77,0.00,,,0.01,Wunderground v.1.13,2015-07-02 02:34:00,
2015-07-01 22:40:00,79.4,71.6,29.85,NW,322,0.0,0.0,77,0.00,,,0.01,Wunderground v.1.13,2015-07-02 02:40:00,
2015-07-01 22:46:00,79.4,71.9,29.85,NW,320,0.0,0.0,78,0.00,,,0.01,Wunderground v.1.13,2015-07-02 02:46:00,
2015-07-01 22:54:00,78.8,69.4,29.85,NW,322,0.0,0.0,73,0.00,,,0.01,Wunderground v.1.13,2015-07-02 02:54:00,
2015-07-01 23:00:00,78.8,69.8,29.85,NW,322,0.0,0.0,74,0.00,,,0.01,Wunderground v.1.13,2015-07-02 03:00:00,
2015-07-01 23:06:00,78.6,70.0,29.85,NW,322,0.0,0.0,75,0.00,,,0.01,Wunderground v.1.13,2015-07-02 03:06:00,
2015-07-01 23:14:00,78.5,69.5,29.85,NW,322,0.0,0.0,74,0.00,,,0.01,Wunderground v.1.13,2015-07-02 03:14:00,
2015-07-01 23:22:00,78.1,69.1,29.85,NW,322,0.0,0.0,74,0.00,,,0.01,Wunderground v.1.13,2015-07-02 03:22:00,
2015-07-01 23:28:00,78.1,69.1,29.85,NW,322,0.0,0.0,74,0.00,,,0.01,Wunderground v.1.13,2015-07-02 03:28:00,
2015-07-01 23:34:00,77.9,69.3,29.85,NW,322,0.0,0.0,75,0.00,,,0.01,Wunderground v.1.13,2015-07-02 03:34:00,
2015-07-01 23:40:00,77.7,69.1,29.85,NW,322,0.0,0.0,75,0.00,,,0.01,Wunderground v.1.13,2015-07-02 03:40:00,
2015-07-01 23:46:00,77.6,69.4,29.84,NW,322,0.0,0.0,76,0.00,,,0.01,Wunderground v.1.13,2015-07-02 03:46:00,
2015-07-01 23:52:00,77.6,69.4,29.84,N/A,-737280,0.0,0.0,76,0.00,,,0.01,Wunderground v.1.13,2015-07-02 03:52:00,